Date,TemperatureHighF,TemperatureAvgF,TemperatureLowF,DewpointHighF,DewpointAvgF,DewpointLowF,HumidityHigh,HumidityAvg,HumidityLow,PressureMaxIn,PressureMinIn,WindSpeedMaxMPH,WindSpeedAvgMPH,GustSpeedMaxMPH,PrecipitationSumIn
2013-2-1,71,58,50,52,43,39,90,59,36,30.14,30.04,9,1,9,0.00
2013-2-2,64,53,45,54,46,40,99,78,63,30.21,30.14,11,1,11,0.00
2013-2-3,58,48,42,50,45,42,100,91,69,30.20,30.07,15,2,15,0.01
2013-2-4,65,53,44,53,46,40,100,78,54,30.11,29.99,6,1,6,0.00
2013-2-5,56,46,40,48,44,40,100,92,72,30.09,30.01,18,3,18,0.02
2013-2-6,59,47,41,49,42,38,98,84,61,30.14,30.07,19,2,19,0.00
2013-2-7,52,44,39,48,40,36,99,87,65,30.14,29.96,18,2,18,0.10
2013-2-8,50,42,38,44,39,33,100,91,65,29.97,29.89,21,3,21,0.02
2013-2-9,56,45,40,42,34,26,80,64,43,30.05,29.93,16,2,16,0.00
2013-2-10,59,48,40,41,34,27,95,60,39,30.06,29.96,16,2,16,0.00
2013-2-11,60,50,43,36,31,23,67,49,27,30.18,30.00,20,4,20,0.00
2013-2-12,60,48,39,44,39,31,100,73,46,30.29,30.18,7,1,7,0.00
2013-2-13,64,54,47,48,38,34,70,56,37,30.27,30.15,12,2,12,0.00
2013-2-14,68,57,46,45,40,37,79,55,39,30.16,30.08,22,4,22,0.00
2013-2-15,76,64,56,46,39,34,53,41,26,30.18,30.12,12,2,12,0.00
2013-2-16,74,64,54,47,38,29,67,40,26,30.14,29.97,16,2,16,0.00
2013-2-17,59,51,42,49,43,36,95,77,52,29.99,29.92,15,2,15,0.00
2013-2-18,49,44,40,47,42,38,100,92,75,30.01,29.94,13,1,13,0.01
2013-2-19,45,40,35,45,40,35,100,98,89,29.94,29.71,20,3,20,0.37
2013-2-20,57,43,34,44,38,33,99,83,52,30.01,29.78,21,4,21,0.01
2013-2-21,56,46,39,40,37,30,96,73,42,30.13,30.00,21,4,21,0.00
2013-2-22,64,50,42,43,37,27,92,63,38,30.19,30.12,18,2,19,0.00
2013-2-23,57,47,42,45,40,28,100,78,43,30.20,30.09,24,3,24,0.01
2013-2-24,59,50,42,31,26,22,55,41,27,30.20,30.11,27,4,27,0.00
2013-2-25,66,51,40,46,38,27,90,63,44,30.21,30.11,18,2,18,0.00
2013-2-26,64,54,44,40,29,22,77,41,23,30.14,30.07,23,4,23,0.00
2013-2-27,70,57,49,44,34,25,70,43,22,30.29,30.13,14,2,14,0.00
2013-2-28,69,58,50,54,48,42,83,70,54,30.38,30.29,11,2,13,0.00